createdAt,value
2023-02-23T00:09:58.655Z,7.9
2023-02-23T00:20:04.598Z,7.9
2023-02-23T00:40:18.726Z,7.9
2023-02-23T00:50:24.626Z,7.9
2023-02-23T01:00:30.721Z,7.8
2023-02-23T01:10:36.706Z,7.8
2023-02-23T01:20:42.802Z,7.8
2023-02-23T01:30:48.938Z,7.8
2023-02-23T01:40:54.872Z,7.8
2023-02-23T01:51:00.884Z,7.8
2023-02-23T02:01:06.975Z,7.8
2023-02-23T02:11:13.005Z,7.8
2023-02-23T02:21:19.394Z,7.7
2023-02-23T02:31:25.099Z,7.7
2023-02-23T02:41:31.155Z,7.7
2023-02-23T02:51:37.209Z,7.7
2023-02-23T03:01:45.215Z,7.7
2023-02-23T03:11:53.690Z,7.7
2023-02-23T03:21:57.245Z,7.6
2023-02-23T03:32:03.411Z,7.6
2023-02-23T03:42:09.348Z,7.6
2023-02-23T03:52:15.371Z,7.6
2023-02-23T04:02:21.482Z,7.6
2023-02-23T04:12:27.447Z,7.6
2023-02-23T04:22:33.520Z,7.7
2023-02-23T04:32:41.602Z,7.7
2023-02-23T04:42:47.507Z,7.8
2023-02-23T04:52:53.539Z,7.8
2023-02-23T05:03:01.646Z,7.8
2023-02-23T05:13:07.538Z,7.7
2023-02-23T05:23:13.577Z,7.8
2023-02-23T05:33:21.500Z,7.8
2023-02-23T05:43:27.651Z,7.8
2023-02-23T05:53:33.593Z,7.7
2023-02-23T06:03:39.705Z,7.7
2023-02-23T06:13:45.689Z,7.7
2023-02-23T06:23:51.742Z,7.7
2023-02-23T06:33:57.783Z,7.6
2023-02-23T06:44:05.716Z,7.6
2023-02-23T06:54:13.695Z,7.6
2023-02-23T07:04:21.653Z,7.9
2023-02-23T07:14:27.635Z,7.9
2023-02-23T07:24:33.688Z,8.2
2023-02-23T07:34:39.702Z,8.2
2023-02-23T07:44:45.926Z,8.3
2023-02-23T07:54:51.834Z,8.4
2023-02-23T08:04:57.896Z,8.3
2023-02-23T08:15:03.937Z,8.3
2023-02-23T08:25:09.981Z,8.2
2023-02-23T08:35:16.020Z,8.2
2023-02-23T08:45:22.106Z,8.2
2023-02-23T08:55:28.124Z,8.1
2023-02-23T09:05:34.239Z,8.1
2023-02-23T09:15:40.300Z,8.2
2023-02-23T09:25:48.191Z,8.3
2023-02-23T09:35:54.189Z,8.3
2023-02-23T09:46:00.533Z,8.3
2023-02-23T09:56:06.321Z,8.1
2023-02-23T10:06:12.398Z,8.1
2023-02-23T10:16:18.435Z,8.4
2023-02-23T10:26:24.462Z,8.2
2023-02-23T10:36:30.465Z,8.5
2023-02-23T10:46:36.629Z,8.4
2023-02-23T10:56:42.567Z,8.4
2023-02-23T11:06:48.640Z,8.5
2023-02-23T11:16:54.675Z,8.5
2023-02-23T11:27:00.811Z,8.7
2023-02-23T11:37:06.772Z,8.4
2023-02-23T11:47:13.042Z,8.4
2023-02-23T11:57:18.857Z,8.4
2023-02-23T12:07:26.839Z,8.3
2023-02-23T12:17:32.881Z,8.3
2023-02-23T12:27:38.930Z,8.2
2023-02-23T12:37:44.966Z,8.2
2023-02-23T12:47:51.030Z,8.3
2023-02-23T12:57:57.046Z,8.1
2023-02-23T13:08:12.767Z,8.1
2023-02-23T13:18:09.145Z,8
2023-02-23T13:28:15.217Z,8
2023-02-23T13:38:21.232Z,8.3
2023-02-23T13:48:27.344Z,8.4
2023-02-23T13:58:33.319Z,8.1
2023-02-23T14:08:39.418Z,8.2
2023-02-23T14:18:45.441Z,8.1
2023-02-23T14:28:51.502Z,8.1
2023-02-23T14:38:57.534Z,8.1
2023-02-23T14:49:03.593Z,8.1
2023-02-23T14:59:09.609Z,8.1
2023-02-23T15:09:15.703Z,8.1
2023-02-23T15:19:23.282Z,8.1
2023-02-23T15:29:27.815Z,8
2023-02-23T15:39:33.819Z,8
2023-02-23T15:49:39.935Z,7.9
2023-02-23T15:59:45.901Z,7.9
2023-02-23T16:09:52.097Z,7.9
2023-02-23T16:19:59.880Z,8.1
2023-02-23T16:30:05.980Z,8.1
2023-02-23T16:40:11.999Z,8.2
2023-02-23T17:00:25.998Z,8.2
2023-02-23T17:10:32.026Z,8.1
2023-02-23T17:20:38.092Z,8.3
2023-02-23T17:30:46.122Z,8.3
2023-02-23T17:40:52.055Z,8.3
2023-02-23T17:50:58.076Z,8.2
2023-02-23T18:01:06.169Z,8.2
2023-02-23T18:11:12.065Z,8.2
2023-02-23T18:21:18.133Z,8.2
2023-02-23T18:31:24.770Z,8.2
2023-02-23T18:41:30.369Z,8.1
2023-02-23T18:51:36.249Z,8.1
2023-02-23T19:01:44.195Z,8.1
2023-02-23T19:11:50.217Z,8.1
2023-02-23T19:21:56.302Z,8.1
2023-02-23T19:32:04.385Z,8
2023-02-23T19:42:10.261Z,8
2023-02-23T19:52:16.295Z,8
2023-02-23T20:02:22.457Z,8
2023-02-23T20:12:28.397Z,8
2023-02-23T20:22:34.485Z,8
2023-02-23T20:32:40.637Z,8
2023-02-23T20:42:48.446Z,8
2023-02-23T20:52:54.476Z,8
2023-02-23T21:03:00.533Z,8
2023-02-23T21:13:08.459Z,8
2023-02-23T21:23:14.528Z,8
2023-02-23T21:33:20.533Z,7.9
2023-02-23T21:43:26.617Z,7.9
2023-02-23T21:53:32.644Z,7.9
2023-02-23T22:03:38.706Z,7.9
2023-02-23T22:13:44.761Z,7.9
2023-02-23T22:23:50.804Z,7.9
2023-02-23T22:33:56.837Z,7.9
2023-02-23T22:44:02.933Z,7.8
2023-02-23T22:54:08.938Z,7.8
2023-02-23T23:04:15.150Z,7.8
2023-02-23T23:14:21.017Z,7.8
2023-02-23T23:24:27.097Z,7.8
2023-02-23T23:34:33.102Z,7.8
2023-02-23T23:44:39.204Z,7.7
2023-02-23T23:54:45.219Z,7.7
